createdAt,value
2018-11-20T11:36:10.335Z,19.90
2018-11-20T11:39:10.365Z,21.77
2018-11-20T11:42:09.090Z,20.67
2018-11-20T11:44:56.037Z,20.80
2018-11-20T11:47:25.998Z,20.27
2018-11-20T11:52:43.833Z,21.10
2018-11-20T11:55:35.995Z,20.13
2018-11-20T12:00:43.439Z,20.10
2018-11-20T12:08:29.823Z,19.87
2018-11-20T12:13:59.837Z,17.80
2018-11-20T12:26:54.842Z,18.53
2018-11-20T12:29:41.754Z,21.17
2018-11-20T12:32:12.041Z,19.50
2018-11-20T12:37:25.450Z,18.70
2018-11-20T12:40:20.973Z,18.70
2018-11-20T12:45:19.085Z,18.90
2018-11-20T12:47:47.044Z,18.17
2018-11-20T12:52:44.400Z,18.17
2018-11-20T12:57:58.821Z,19.27
2018-11-20T13:05:31.895Z,17.50
2018-11-20T13:13:04.739Z,16.83
2018-11-20T13:20:46.336Z,15.77
2018-11-20T13:28:19.069Z,16.57
2018-11-20T13:38:20.801Z,17.40
2018-11-20T13:43:21.738Z,13.00
2018-11-20T13:48:23.720Z,15.63
2018-11-20T13:53:25.273Z,18.40
2018-11-20T13:58:26.021Z,16.80
2018-11-20T14:05:51.872Z,16.53
2018-11-20T14:23:54.169Z,15.30
2018-11-20T14:28:52.802Z,15.60
2018-11-20T14:34:04.798Z,13.80
2018-11-20T14:41:43.401Z,14.80
2018-11-20T14:46:39.731Z,15.00
2018-11-20T14:51:37.618Z,14.67
2018-11-20T15:01:35.173Z,14.87
2018-11-20T15:06:39.218Z,13.73
2018-11-20T15:14:01.953Z,15.33
2018-11-20T15:21:27.439Z,15.43
2018-11-20T15:26:25.168Z,16.40
2018-11-20T15:31:20.076Z,15.50
2018-11-20T15:38:46.246Z,15.70
2018-11-20T15:43:46.119Z,14.90
2018-11-20T15:51:28.130Z,13.20
2018-11-20T15:56:29.500Z,14.10
2018-11-20T16:01:27.062Z,14.50
2018-11-20T16:04:10.768Z,13.50
2018-11-20T16:06:38.331Z,14.17
2018-11-20T16:14:03.915Z,15.00
2018-11-20T16:21:27.247Z,14.83
2018-11-20T16:26:56.936Z,13.73
2018-11-20T16:31:51.707Z,13.67
2018-11-20T16:34:22.603Z,12.60
2018-11-20T16:41:45.077Z,14.73
2018-11-20T16:49:10.637Z,14.20
2018-11-20T16:51:41.124Z,14.20
2018-11-20T16:59:33.146Z,13.27
2018-11-20T17:04:31.202Z,14.07
2018-11-20T17:11:53.701Z,14.83
